Time;durP1;ratioP1;P1;durP2;ratioP2;P2;SDS_P1;SDS_P2;PMS_P1;PMS_P2;Temp;Humidity;BMP_temperature;BMP_pressure;BME280_temperature;BME280_humidity;BME280_pressure;Samples;Min_cycle;Max_cycle;Signal;HPM_P1;HPM_P2
2024/04/12 00:01:00;;;;;;;14.00;5.18;;;13.00;99.90;;;;;;5484889;26;20429;-74
2024/04/12 00:03:26;;;;;;;14.48;5.78;;;13.10;99.90;;;;;;5485203;26;19999;-75
2024/04/12 00:05:54;;;;;;;16.67;5.97;;;13.00;99.90;;;;;;5487225;26;20469;-74
2024/04/12 00:08:24;;;;;;;8.57;5.30;;;13.00;99.90;;;;;;5487044;26;20642;-74
2024/04/12 00:10:52;;;;;;;13.40;5.78;;;13.00;99.90;;;;;;5485033;26;20010;-74
2024/04/12 00:13:18;;;;;;;8.88;6.07;;;13.00;99.90;;;;;;5487086;26;20006;-76
2024/04/12 00:15:43;;;;;;;9.75;5.43;;;13.00;99.90;;;;;;5487255;26;20016;-75
2024/04/12 00:18:11;;;;;;;;;;;13.00;99.90;;;;;;5487666;26;20443;-74
2024/04/12 00:20:37;;;;;;;;;;;12.90;99.90;;;;;;5485720;26;19924;-74
2024/04/12 00:23:03;;;;;;;9.23;5.40;;;12.90;99.90;;;;;;5487006;26;20092;-75
2024/04/12 00:25:29;;;;;;;14.50;6.03;;;12.80;99.90;;;;;;5486962;26;20439;-75
2024/04/12 00:27:56;;;;;;;12.10;5.75;;;12.80;99.90;;;;;;5487154;26;20009;-73
2024/04/12 00:30:37;;;;;;;10.75;5.45;;;12.80;99.90;;;;;;5484828;26;20002;-75
2024/04/12 00:33:09;;;;;;;13.88;5.78;;;12.80;99.90;;;;;;5484789;26;19998;-75
2024/04/12 00:35:36;;;;;;;10.38;4.95;;;12.80;99.90;;;;;;5486741;26;20009;-75
2024/04/12 00:38:09;;;;;;;12.77;4.78;;;12.80;99.90;;;;;;5486658;26;20423;-75
2024/04/12 00:40:40;;;;;;;9.27;5.65;;;12.80;99.90;;;;;;5486750;26;20026;-75
2024/04/12 00:43:11;;;;;;;9.13;5.35;;;12.70;99.90;;;;;;5484551;26;20010;-74
2024/04/12 00:45:48;;;;;;;14.07;6.38;;;12.70;99.90;;;;;;5486598;26;20012;-75
2024/04/12 00:48:15;;;;;;;8.85;4.85;;;12.70;99.90;;;;;;5484594;26;20010;-74
2024/04/12 00:50:46;;;;;;;8.75;5.05;;;12.60;99.90;;;;;;5486364;26;20074;-75
2024/04/12 00:53:28;;;;;;;8.88;5.05;;;12.60;99.90;;;;;;5484796;26;20013;-74
2024/04/12 00:56:03;;;;;;;8.73;5.22;;;12.60;99.90;;;;;;5484637;26;20030;-74
2024/04/12 00:58:35;;;;;;;9.02;5.55;;;12.60;99.90;;;;;;5484550;26;20008;-74
2024/04/12 01:01:11;;;;;;;11.25;5.47;;;12.50;99.90;;;;;;5484464;26;20070;-75
2024/04/12 01:03:38;;;;;;;;;;;12.50;99.90;;;;;;5485194;26;20002;-73
2024/04/12 01:06:05;;;;;;;;;;;12.50;99.90;;;;;;5487272;26;19993;-76
2024/04/12 01:08:31;;;;;;;;;;;12.40;99.90;;;;;;5487078;26;19964;-75
2024/04/12 01:10:59;;;;;;;9.60;6.03;;;12.30;99.90;;;;;;5484122;26;19934;-75
2024/04/12 01:13:26;;;;;;;9.40;5.97;;;12.30;99.90;;;;;;5484390;26;20561;-75
2024/04/12 01:15:53;;;;;;;11.45;6.70;;;12.30;99.90;;;;;;5484553;26;20002;-73
2024/04/12 01:18:19;;;;;;;11.23;6.53;;;12.20;99.90;;;;;;5486425;26;20026;-75
2024/04/12 01:20:45;;;;;;;10.85;6.40;;;12.10;99.90;;;;;;5486323;26;19994;-75
2024/04/12 01:23:15;;;;;;;;;;;12.10;99.90;;;;;;5484662;26;20109;-74
2024/04/12 01:25:44;;;;;;;11.85;6.53;;;12.00;99.90;;;;;;5483999;26;19923;-74
2024/04/12 01:28:09;;;;;;;15.00;6.55;;;12.00;99.90;;;;;;5483973;26;19998;-74
2024/04/12 01:30:39;;;;;;;;;;;11.90;99.90;;;;;;5486206;26;20013;-74
2024/04/12 01:33:08;;;;;;;10.93;6.50;;;11.90;99.90;;;;;;5485665;26;19923;-74
2024/04/12 01:35:33;;;;;;;11.35;6.30;;;11.90;99.90;;;;;;5485779;26;20443;-75
2024/04/12 01:38:15;;;;;;;;;;;11.90;99.90;;;;;;5486447;26;20002;-75
2024/04/12 01:40:41;;;;;;;10.23;5.88;;;11.90;99.90;;;;;;5485712;26;19936;-75
2024/04/12 01:43:08;;;;;;;;;;;11.80;99.90;;;;;;5486286;26;19998;-75
2024/04/12 01:45:33;;;;;;;14.27;6.57;;;11.80;99.90;;;;;;5483554;26;19930;-74
2024/04/12 01:47:59;;;;;;;10.70;6.53;;;11.80;99.90;;;;;;5485645;26;20010;-74
2024/04/12 01:50:27;;;;;;;11.52;6.63;;;11.80;99.90;;;;;;5483437;26;20021;-74
2024/04/12 01:52:57;;;;;;;;;;;11.70;99.90;;;;;;5484158;26;20454;-75
2024/04/12 01:55:26;;;;;;;10.38;7.05;;;11.70;99.90;;;;;;5485591;26;19924;-75
2024/04/12 01:57:58;;;;;;;10.82;6.78;;;11.70;99.90;;;;;;5483530;26;19998;-74
2024/04/12 02:00:24;;;;;;;14.00;6.60;;;11.70;99.90;;;;;;5483557;26;20014;-73
2024/04/12 02:02:52;;;;;;;13.32;6.70;;;11.60;99.90;;;;;;5483784;26;20017;-73
2024/04/12 02:05:28;;;;;;;14.52;6.85;;;11.60;99.90;;;;;;5488421;26;20006;-74
2024/04/12 02:07:55;;;;;;;;;;;11.60;99.90;;;;;;5489479;26;20010;-74
2024/04/12 02:10:22;;;;;;;10.48;6.50;;;11.60;99.90;;;;;;5488695;26;19931;-75
2024/04/12 02:12:53;;;;;;;13.80;7.00;;;11.60;99.90;;;;;;5486622;26;20012;-74
2024/04/12 02:15:28;;;;;;;13.82;7.28;;;11.60;99.90;;;;;;5488660;26;20005;-75
2024/04/12 02:17:57;;;;;;;16.13;7.68;;;11.60;99.90;;;;;;5486877;26;19998;-75
2024/04/12 02:20:35;;;;;;;14.13;7.32;;;11.60;99.90;;;;;;5486538;26;20023;-74
2024/04/12 02:23:05;;;;;;;11.13;7.50;;;11.50;99.90;;;;;;5488517;26;20005;-73
2024/04/12 02:25:38;;;;;;;16.55;7.25;;;11.50;99.90;;;;;;5486565;26;20009;-75
2024/04/12 02:28:08;;;;;;;8.48;7.03;;;11.50;99.90;;;;;;5486654;26;20047;-73
2024/04/12 02:30:44;;;;;;;9.48;6.80;;;11.50;99.90;;;;;;5487940;26;20017;-74
2024/04/12 02:33:16;;;;;;;11.75;6.75;;;11.50;99.90;;;;;;5488576;26;19998;-74
2024/04/12 02:35:42;;;;;;;15.18;7.68;;;11.40;99.90;;;;;;5486385;26;19990;-75
2024/04/12 02:38:20;;;;;;;14.43;7.18;;;11.40;99.90;;;;;;5488248;26;20002;-75
2024/04/12 02:40:48;;;;;;;12.10;6.32;;;11.40;99.90;;;;;;5486297;26;19994;-74
2024/04/12 02:43:18;;;;;;;11.40;6.82;;;11.40;99.90;;;;;;5488428;26;20021;-75
2024/04/12 02:46:00;;;;;;;13.57;7.35;;;11.40;99.90;;;;;;5486499;26;20042;-74
2024/04/12 02:48:28;;;;;;;9.85;6.03;;;11.30;99.90;;;;;;5486410;26;20006;-74
2024/04/12 02:50:58;;;;;;;10.57;6.50;;;11.30;99.90;;;;;;5486338;26;20412;-76
2024/04/12 02:53:29;;;;;;;19.42;7.28;;;11.30;99.90;;;;;;5488252;26;20002;-75
2024/04/12 02:56:01;;;;;;;9.98;6.97;;;11.30;99.90;;;;;;5488099;26;20012;-75
2024/04/12 02:58:38;;;;;;;9.45;6.50;;;11.30;99.90;;;;;;5486239;26;19994;-76
2024/04/12 03:01:17;;;;;;;10.82;6.82;;;11.30;99.90;;;;;;5485932;26;20013;-75
2024/04/12 03:03:47;;;;;;;11.93;7.15;;;11.30;99.90;;;;;;5486078;26;20465;-75
2024/04/12 03:06:32;;;;;;;11.65;7.03;;;11.20;99.90;;;;;;5487906;26;20026;-75
2024/04/12 03:09:02;;;;;;;13.15;7.85;;;11.20;99.90;;;;;;5486075;26;20447;-75
2024/04/12 03:11:35;;;;;;;16.13;8.18;;;11.20;99.90;;;;;;5487810;26;20017;-75
2024/04/12 03:14:09;;;;;;;19.00;7.95;;;11.20;99.90;;;;;;5485952;26;20533;-74
2024/04/12 03:16:37;;;;;;;12.20;7.70;;;11.20;99.90;;;;;;5484747;26;19990;-74
2024/04/12 03:19:07;;;;;;;12.30;6.90;;;11.20;99.90;;;;;;5487682;26;20002;-74
2024/04/12 03:21:34;;;;;;;16.85;6.97;;;11.20;99.90;;;;;;5487661;26;19994;-75
2024/04/12 03:24:01;;;;;;;16.15;6.90;;;11.10;99.90;;;;;;5487818;26;20013;-74
2024/04/12 03:26:27;;;;;;;12.60;7.88;;;11.10;99.90;;;;;;5487734;26;20002;-75
2024/04/12 03:28:54;;;;;;;16.58;7.53;;;11.10;99.90;;;;;;5487852;26;19998;-75
2024/04/12 03:31:26;;;;;;;12.98;7.57;;;11.10;99.90;;;;;;5487576;26;19998;-75
2024/04/12 03:33:56;;;;;;;19.33;8.48;;;11.00;99.90;;;;;;5485695;26;20002;-74
2024/04/12 03:39:24;;;;;;;13.60;7.60;;;11.10;99.90;;;;;;5487648;26;20001;-75
2024/04/12 03:41:58;;;;;;;13.60;7.88;;;11.10;99.90;;;;;;5487653;26;20511;-74
2024/04/12 03:44:25;;;;;;;15.40;7.90;;;11.00;99.90;;;;;;5485548;26;20098;-74
2024/04/12 03:46:52;;;;;;;13.98;8.02;;;11.00;99.90;;;;;;5487362;26;20008;-74
2024/04/12 03:49:23;;;;;;;12.27;8.18;;;11.00;99.90;;;;;;5487279;26;20013;-75
2024/04/12 03:51:58;;;;;;;11.30;8.18;;;11.10;99.90;;;;;;5487306;26;20494;-75
2024/04/12 03:54:25;;;;;;;11.95;8.27;;;11.10;99.90;;;;;;5485314;26;20004;-75
2024/04/12 03:56:53;;;;;;;20.25;8.48;;;11.10;99.90;;;;;;5485130;26;19998;-75
2024/04/12 03:59:29;;;;;;;19.52;8.73;;;11.10;99.90;;;;;;5487179;26;20002;-75
2024/04/12 04:01:55;;;;;;;15.00;7.13;;;11.10;99.90;;;;;;5485257;26;19994;-74
2024/04/12 04:04:28;;;;;;;10.18;7.10;;;11.10;99.90;;;;;;5485254;26;20022;-75
2024/04/12 04:06:55;;;;;;;9.57;6.60;;;11.10;99.90;;;;;;5485292;26;20029;-75
2024/04/12 04:09:27;;;;;;;11.13;6.75;;;11.00;99.90;;;;;;5485077;26;20017;-76
2024/04/12 04:11:54;;;;;;;11.50;6.43;;;11.00;99.90;;;;;;5487139;26;20446;-75
2024/04/12 04:14:27;;;;;;;7.88;6.05;;;11.10;99.90;;;;;;5485215;26;20014;-75
2024/04/12 04:16:55;;;;;;;12.70;6.72;;;11.10;99.90;;;;;;5486932;26;20017;-75
2024/04/12 04:19:30;;;;;;;9.45;6.63;;;11.10;99.90;;;;;;5485024;26;19998;-75
2024/04/12 04:22:05;;;;;;;12.80;6.75;;;11.10;99.90;;;;;;5485027;26;20435;-77
2024/04/12 04:24:33;;;;;;;14.13;8.25;;;11.10;99.90;;;;;;5485014;26;19999;-75
2024/04/12 04:27:00;;;;;;;15.63;7.38;;;11.20;99.90;;;;;;5486646;26;20447;-74
2024/04/12 04:29:26;;;;;;;17.70;8.23;;;11.20;99.90;;;;;;5484351;26;20316;-75
2024/04/12 04:31:52;;;;;;;;;;;11.20;99.90;;;;;;5485348;26;20103;-74
2024/04/12 04:34:20;;;;;;;17.38;8.00;;;11.30;99.90;;;;;;5485896;26;19931;-74
2024/04/12 04:36:49;;;;;;;13.73;7.53;;;11.30;99.90;;;;;;5486521;26;20051;-75
2024/04/12 04:39:21;;;;;;;12.00;6.85;;;11.40;99.90;;;;;;5486323;26;20013;-74
2024/04/12 04:41:51;;;;;;;14.68;7.22;;;11.50;99.90;;;;;;5484023;26;20402;-77
2024/04/12 04:44:17;;;;;;;16.83;6.93;;;11.60;99.90;;;;;;5484381;26;20005;-75
2024/04/12 04:46:46;;;;;;;11.25;7.03;;;11.80;99.90;;;;;;5486624;26;20010;-74
2024/04/12 04:49:17;;;;;;;17.10;5.47;;;11.90;99.90;;;;;;5486236;26;19994;-75
2024/04/12 04:51:45;;;;;;;13.82;6.28;;;12.20;99.90;;;;;;5477728;26;20054;-73
2024/04/12 04:54:11;;;;;;;16.88;5.88;;;12.40;99.90;;;;;;5486172;26;19998;-72
2024/04/12 04:56:47;;;;;;;14.48;5.85;;;12.60;99.90;;;;;;5486514;26;20803;-75
2024/04/12 04:59:17;;;;;;;10.57;5.78;;;12.90;99.90;;;;;;5486341;26;20073;-75
2024/04/12 05:01:49;;;;;;;14.07;6.47;;;13.20;99.90;;;;;;5486226;26;19997;-72
2024/04/12 05:04:16;;;;;;;9.82;5.90;;;13.50;99.90;;;;;;5484138;26;20022;-75
2024/04/12 05:06:44;;;;;;;11.65;5.93;;;13.70;99.90;;;;;;5485736;26;19998;-72
2024/04/12 05:09:12;;;;;;;9.30;5.13;;;14.00;99.90;;;;;;5486091;26;20079;-73
2024/04/12 05:11:38;;;;;;;9.10;4.95;;;14.30;99.90;;;;;;5484182;26;20002;-75
2024/04/12 05:14:14;;;;;;;14.05;4.63;;;14.80;99.90;;;;;;5486298;26;20012;-74
2024/04/12 05:16:43;;;;;;;15.68;4.55;;;15.30;99.90;;;;;;5483996;26;19994;-75
2024/04/12 05:19:09;;;;;;;12.05;5.43;;;15.90;99.90;;;;;;5485927;26;20351;-75
2024/04/12 05:21:38;;;;;;;10.00;4.55;;;16.40;99.90;;;;;;5485506;26;20013;-75
2024/04/12 05:24:10;;;;;;;11.60;4.85;;;16.80;99.90;;;;;;5485720;26;20012;-74
2024/04/12 05:26:42;;;;;;;12.45;5.40;;;17.20;99.90;;;;;;5485827;26;19997;-75
2024/04/12 05:29:17;;;;;;;8.10;4.05;;;17.50;99.90;;;;;;5485601;26;20042;-76
2024/04/12 05:31:42;;;;;;;9.73;4.50;;;17.90;99.90;;;;;;5485686;26;20009;-75
2024/04/12 05:34:18;;;;;;;9.73;5.28;;;18.50;99.90;;;;;;5483772;26;20026;-75
2024/04/12 05:36:44;;;;;;;8.15;4.30;;;18.90;99.90;;;;;;5485623;26;20038;-75
2024/04/12 05:39:11;;;;;;;13.02;4.70;;;19.20;98.70;;;;;;5482681;26;20091;-76
2024/04/12 05:41:38;;;;;;;10.98;4.82;;;19.90;95.90;;;;;;5485802;26;20079;-73
2024/04/12 05:44:06;;;;;;;13.27;4.30;;;20.50;92.80;;;;;;5483999;26;20018;-72
2024/04/12 05:46:33;;;;;;;13.02;4.25;;;21.10;90.70;;;;;;5485566;26;20017;-72
2024/04/12 05:49:09;;;;;;;8.95;4.15;;;21.60;85.70;;;;;;5485242;26;20103;-72
2024/04/12 05:51:37;;;;;;;11.70;4.03;;;22.00;79.80;;;;;;5479068;26;20043;-73
2024/04/12 05:54:15;;;;;;;10.10;4.25;;;22.40;75.00;;;;;;5476333;26;20099;-72
2024/04/12 05:56:44;;;;;;;9.57;4.28;;;22.70;71.70;;;;;;5485468;26;20338;-75
2024/04/12 05:59:13;;;;;;;11.13;4.97;;;22.80;69.30;;;;;;5483608;26;19998;-75
2024/04/12 06:01:51;;;;;;;15.25;5.00;;;23.00;66.90;;;;;;5485488;26;19994;-75
2024/04/12 06:04:23;;;;;;;14.20;4.50;;;23.30;65.00;;;;;;5483231;26;20022;-74
2024/04/12 06:06:50;;;;;;;11.10;5.18;;;23.20;64.30;;;;;;5485139;26;19998;-75
2024/04/12 06:09:20;;;;;;;11.27;4.63;;;23.30;63.00;;;;;;5485219;26;20074;-76
2024/04/12 06:11:56;;;;;;;8.57;5.13;;;23.50;62.40;;;;;;5484900;26;19998;-74
2024/04/12 06:14:23;;;;;;;8.40;4.38;;;23.50;61.20;;;;;;5482838;26;20043;-76
2024/04/12 06:16:56;;;;;;;10.05;4.43;;;23.50;60.90;;;;;;5482900;26;20046;-75
2024/04/12 06:19:25;;;;;;;9.57;4.30;;;23.30;60.50;;;;;;5484569;26;20077;-76
2024/04/12 06:21:51;;;;;;;8.23;4.15;;;23.30;60.40;;;;;;5484473;26;19998;-75
2024/04/12 06:24:26;;;;;;;11.70;4.85;;;23.50;60.10;;;;;;5484592;26;20002;-75
2024/04/12 06:26:54;;;;;;;14.93;4.90;;;23.50;59.40;;;;;;5482802;26;19994;-74
2024/04/12 06:29:22;;;;;;;12.57;4.75;;;23.60;58.50;;;;;;5484463;26;20006;-74
2024/04/12 06:31:50;;;;;;;11.60;5.72;;;23.60;58.30;;;;;;5482667;26;20021;-75
2024/04/12 06:34:19;;;;;;;21.52;5.60;;;23.60;58.20;;;;;;5484654;26;19998;-75
2024/04/12 06:36:55;;;;;;;12.63;4.93;;;23.80;57.80;;;;;;5484783;26;19990;-75
2024/04/12 06:39:26;;;;;;;11.00;4.78;;;23.90;57.50;;;;;;5484491;26;19994;-75
2024/04/12 06:42:03;;;;;;;12.95;3.97;;;23.90;57.80;;;;;;5482658;26;20502;-75
2024/04/12 06:44:32;;;;;;;11.18;4.05;;;24.30;55.60;;;;;;5484490;26;20465;-75
2024/04/12 06:46:58;;;;;;;12.32;4.07;;;24.20;55.10;;;;;;5482584;26;19994;-75
2024/04/12 06:49:37;;;;;;;12.57;4.35;;;24.00;56.10;;;;;;5482712;26;20047;-74
2024/04/12 06:52:09;;;;;;;9.50;4.07;;;24.00;55.30;;;;;;5488003;26;20088;-75
2024/04/12 06:54:41;;;;;;;7.10;3.78;;;24.00;55.50;;;;;;5479020;26;20515;-75
2024/04/12 06:57:08;;;;;;;11.15;4.10;;;24.10;56.60;;;;;;5488005;26;20436;-74
2024/04/12 06:59:40;;;;;;;12.70;4.18;;;24.40;55.20;;;;;;5488079;26;20012;-75
2024/04/12 07:02:08;;;;;;;8.40;4.22;;;24.60;54.20;;;;;;5485882;26;20014;-75
2024/04/12 07:04:35;;;;;;;9.85;4.72;;;24.90;53.10;;;;;;5488207;26;20067;-75
2024/04/12 07:07:04;;;;;;;14.63;5.28;;;25.00;52.50;;;;;;5485996;26;20332;-75
2024/04/12 07:09:30;;;;;;;6.28;4.10;;;25.20;52.50;;;;;;5487862;26;20474;-74
2024/04/12 07:11:58;;;;;;;11.40;4.15;;;25.40;51.90;;;;;;5485823;26;20448;-76
2024/04/12 07:14:24;;;;;;;11.98;5.20;;;25.70;51.10;;;;;;5487725;26;20010;-75
2024/04/12 07:16:49;;;;;;;11.32;4.70;;;25.90;50.10;;;;;;5487881;26;20332;-75
2024/04/12 07:19:18;;;;;;;10.80;4.38;;;25.90;50.40;;;;;;5485727;26;19998;-75
2024/04/12 07:21:44;;;;;;;12.88;4.47;;;26.00;51.10;;;;;;5485880;26;20427;-75
2024/04/12 07:24:15;;;;;;;8.95;4.63;;;26.50;49.90;;;;;;5485799;26;20002;-75
2024/04/12 07:26:41;;;;;;;9.70;4.53;;;26.70;48.00;;;;;;5485733;26;19999;-75
2024/04/12 07:29:07;;;;;;;12.50;4.20;;;27.00;47.40;;;;;;5487640;26;20731;-76
2024/04/12 07:31:38;;;;;;;14.50;4.18;;;27.20;46.50;;;;;;5487851;26;20009;-74
2024/04/12 07:34:07;;;;;;;14.27;5.00;;;27.30;46.00;;;;;;5486044;26;20429;-75
2024/04/12 07:36:35;;;;;;;13.20;4.05;;;27.70;45.10;;;;;;5487756;26;19994;-74
2024/04/12 07:39:07;;;;;;;11.30;3.83;;;28.00;44.60;;;;;;5485484;26;20006;-74
2024/04/12 07:41:45;;;;;;;8.25;3.88;;;27.90;43.00;;;;;;5487431;26;20002;-75
2024/04/12 07:44:12;;;;;;;10.75;3.80;;;27.80;42.80;;;;;;5485421;26;20351;-75
2024/04/12 07:46:38;;;;;;;6.00;3.60;;;27.80;43.40;;;;;;5485538;26;20693;-74
2024/04/12 07:49:07;;;;;;;9.48;3.92;;;28.00;42.70;;;;;;5485027;26;19998;-75
2024/04/12 07:51:39;;;;;;;12.70;4.63;;;28.30;42.40;;;;;;5487183;26;20033;-75
2024/04/12 07:54:11;;;;;;;9.88;4.10;;;28.40;42.90;;;;;;5487200;26;20010;-74
2024/04/12 07:56:43;;;;;;;9.93;3.92;;;28.40;42.90;;;;;;5479863;26;20070;-75
2024/04/12 08:02:05;;;;;;;10.05;3.78;;;28.50;40.90;;;;;;5477653;26;20002;-74
2024/04/12 08:04:38;;;;;;;6.57;4.55;;;28.70;41.30;;;;;;5485274;26;20002;-75
2024/04/12 08:07:13;;;;;;;7.95;3.75;;;28.90;41.10;;;;;;5485257;26;20589;-75
2024/04/12 08:09:46;;;;;;;5.32;3.45;;;29.20;40.90;;;;;;5487156;26;20010;-75
2024/04/12 08:12:17;;;;;;;15.75;4.35;;;29.70;39.70;;;;;;5486879;26;20455;-75
2024/04/12 08:14:52;;;;;;;25.42;4.38;;;29.90;38.50;;;;;;5486790;26;19998;-75
2024/04/12 08:17:25;;;;;;;19.37;3.67;;;30.30;37.80;;;;;;5487249;26;20828;-75
2024/04/12 08:19:57;;;;;;;5.85;3.95;;;30.30;37.70;;;;;;5486627;26;20235;-75
2024/04/12 08:22:26;;;;;;;11.40;3.88;;;30.10;36.40;;;;;;5486930;26;20021;-75
2024/04/12 08:24:55;;;;;;;12.10;4.18;;;29.70;37.50;;;;;;5486789;26;19998;-75
2024/04/12 08:27:26;;;;;;;7.97;4.22;;;30.00;38.10;;;;;;5487061;26;20430;-75
2024/04/12 08:29:52;;;;;;;8.45;3.80;;;30.00;38.00;;;;;;5484588;26;20002;-75
2024/04/12 08:32:27;;;;;;;19.85;4.93;;;30.40;38.10;;;;;;5486411;26;19998;-75
2024/04/12 08:34:56;;;;;;;7.88;4.63;;;30.60;36.00;;;;;;5486805;26;19997;-76
2024/04/12 08:37:30;;;;;;;9.70;4.00;;;30.30;35.40;;;;;;5485233;26;20002;-75
2024/04/12 08:39:57;;;;;;;12.10;5.00;;;29.30;37.40;;;;;;5486575;26;20013;-74
2024/04/12 08:42:29;;;;;;;8.95;4.00;;;28.50;39.50;;;;;;5484427;26;20009;-75
2024/04/12 08:45:00;;;;;;;13.07;4.50;;;28.20;40.50;;;;;;5485232;26;19998;-75
2024/04/12 08:47:32;;;;;;;13.93;5.22;;;28.30;41.10;;;;;;5484789;26;20013;-75
2024/04/12 08:50:04;;;;;;;11.85;5.10;;;28.70;40.20;;;;;;5486263;26;20002;-75
2024/04/12 08:52:43;;;;;;;9.90;4.82;;;29.10;39.40;;;;;;5486325;26;20013;-75
2024/04/12 08:55:20;;;;;;;6.00;3.80;;;29.60;37.90;;;;;;5486218;26;20004;-75
2024/04/12 08:57:47;;;;;;;8.98;4.25;;;29.50;38.00;;;;;;5485859;26;20005;-75
2024/04/12 09:00:18;;;;;;;10.73;3.88;;;29.10;39.10;;;;;;5484361;26;20516;-75
2024/04/12 09:02:58;;;;;;;8.57;4.43;;;28.90;39.40;;;;;;5484055;26;19998;-76
2024/04/12 09:05:27;;;;;;;8.00;4.53;;;28.60;39.50;;;;;;5485920;26;20010;-75
2024/04/12 09:07:58;;;;;;;10.70;5.00;;;28.40;38.80;;;;;;5486164;26;20002;-75
2024/04/12 09:10:27;;;;;;;13.80;4.40;;;28.10;39.80;;;;;;5484271;26;20001;-76
2024/04/12 09:12:54;;;;;;;9.25;4.70;;;27.90;40.30;;;;;;5483531;26;19994;-74
2024/04/12 09:15:27;;;;;;;11.90;5.05;;;27.30;41.20;;;;;;5485514;26;20012;-75
2024/04/12 09:18:13;;;;;;;9.63;4.28;;;27.00;42.10;;;;;;5485982;26;20277;-76
2024/04/12 09:20:39;;;;;;;9.52;4.22;;;26.90;43.30;;;;;;5485903;26;19998;-76
2024/04/12 09:23:15;;;;;;;16.77;5.07;;;26.70;43.30;;;;;;5485831;26;20013;-75
2024/04/12 09:25:58;;;;;;;11.73;3.60;;;26.60;42.90;;;;;;5485854;26;20074;-75
2024/04/12 09:28:37;;;;;;;16.85;4.35;;;26.60;44.10;;;;;;5483860;26;20002;-75
2024/04/12 09:33:50;;;;;;;9.57;4.55;;;26.60;44.50;;;;;;5485355;26;20012;-75
2024/04/12 09:36:50;;;;;;;11.45;4.55;;;26.50;45.00;;;;;;5483780;26;20451;-73
2024/04/12 09:39:16;;;;;;;9.20;4.68;;;26.30;43.80;;;;;;5485864;26;20009;-75
2024/04/12 09:41:56;;;;;;;22.17;5.43;;;26.30;45.40;;;;;;5483603;26;20016;-76
2024/04/12 09:44:38;;;;;;;11.52;4.70;;;26.60;44.80;;;;;;5483691;26;20002;-75
2024/04/12 10:37:28;;;;;;;14.63;4.20;;;26.00;45.20;;;;;;5488606;26;20012;-75
2024/04/12 10:39:55;;;;;;;9.48;4.07;;;25.90;45.30;;;;;;5486416;26;20071;-74
2024/04/12 10:42:30;;;;;;;8.40;3.85;;;25.80;46.10;;;;;;5487980;26;20013;-75
2024/04/12 10:44:58;;;;;;;7.57;3.42;;;25.90;45.40;;;;;;5488404;26;20328;-74
2024/04/12 10:47:24;;;;;;;7.22;3.50;;;25.90;46.80;;;;;;5487990;26;20011;-74
2024/04/12 10:49:50;;;;;;;8.75;3.80;;;25.70;46.80;;;;;;5488029;26;20009;-75
2024/04/12 10:52:29;;;;;;;13.13;3.88;;;25.60;47.30;;;;;;5488033;26;20002;-74
2024/04/12 10:54:56;;;;;;;14.55;3.83;;;25.40;46.90;;;;;;5488005;26;20451;-73
2024/04/12 10:57:23;;;;;;;12.50;4.00;;;25.30;46.70;;;;;;5486056;26;20503;-74
2024/04/12 10:59:51;;;;;;;8.60;4.15;;;25.20;48.00;;;;;;5487756;26;19999;-74
2024/04/12 11:02:18;;;;;;;8.77;3.90;;;25.10;48.30;;;;;;5487762;26;20392;-75
2024/04/12 11:07:28;;;;;;;8.50;3.92;;;24.90;49.00;;;;;;5480127;26;20510;-74
2024/04/12 11:10:03;;;;;;;10.95;4.45;;;24.80;49.10;;;;;;5486023;26;20002;-75
2024/04/12 11:12:45;;;;;;;10.18;4.43;;;24.60;49.10;;;;;;5486176;26;20071;-75
2024/04/12 11:31:53;;;;;;;14.57;4.00;;;24.20;50.60;;;;;;5487762;26;20419;-74
2024/04/12 11:34:20;;;;;;;7.13;3.28;;;24.20;50.40;;;;;;5485519;26;19998;-74
2024/04/12 11:36:46;;;;;;;8.95;4.03;;;24.10;50.30;;;;;;5486434;26;20447;-74
2024/04/12 11:39:23;;;;;;;9.00;3.40;;;24.10;51.00;;;;;;5485739;26;20010;-75
2024/04/12 11:41:49;;;;;;;8.90;4.07;;;24.10;51.40;;;;;;5487458;26;20005;-75
2024/04/12 11:44:17;;;;;;;9.40;4.22;;;24.10;50.90;;;;;;5487089;26;20016;-74
2024/04/12 11:46:46;;;;;;;8.75;4.10;;;24.10;51.80;;;;;;5485912;26;20007;-74
2024/04/12 11:49:25;;;;;;;10.68;4.40;;;24.10;51.10;;;;;;5485467;26;20427;-74
2024/04/12 11:52:02;;;;;;;7.55;3.53;;;24.10;50.70;;;;;;5487413;26;19998;-74
2024/04/12 11:54:29;;;;;;;12.13;3.53;;;24.00;52.00;;;;;;5485246;26;20002;-74
2024/04/12 11:57:05;;;;;;;8.55;3.65;;;23.90;52.40;;;;;;5485279;26;19998;-74
2024/04/12 11:59:32;;;;;;;8.05;3.45;;;23.90;52.30;;;;;;5487109;26;20341;-75
2024/04/12 12:01:59;;;;;;;10.27;4.03;;;23.80;51.30;;;;;;5487504;26;20002;-75
2024/04/12 12:04:26;;;;;;;7.18;3.28;;;23.90;51.90;;;;;;5485152;26;20630;-74
2024/04/12 12:06:51;;;;;;;8.23;3.25;;;23.90;51.90;;;;;;5487157;26;19998;-74
2024/04/12 12:09:20;;;;;;;19.30;4.03;;;23.90;51.70;;;;;;5487106;26;20051;-74
2024/04/12 12:11:49;;;;;;;11.55;4.13;;;23.80;51.70;;;;;;5485159;26;20012;-75
2024/04/12 12:14:18;;;;;;;8.80;3.33;;;23.80;51.90;;;;;;5486617;26;20002;-75
2024/04/12 12:16:44;;;;;;;7.30;3.45;;;23.80;52.20;;;;;;5485104;26;20009;-75
2024/04/12 12:19:11;;;;;;;11.45;3.83;;;23.80;50.70;;;;;;5487156;26;20073;-74
2024/04/12 12:21:37;;;;;;;12.00;3.15;;;23.80;50.80;;;;;;5487092;26;20070;-73
2024/04/12 12:24:05;;;;;;;11.73;3.03;;;23.70;51.30;;;;;;5484389;26;20498;-74
2024/04/12 12:26:31;;;;;;;10.23;2.97;;;23.70;50.00;;;;;;5484742;26;20034;-74
2024/04/12 12:28:57;;;;;;;9.07;3.10;;;23.60;50.40;;;;;;5486792;26;19998;-74
2024/04/12 12:31:27;;;;;;;8.07;3.50;;;23.60;49.30;;;;;;5484811;26;20457;-75
2024/04/12 12:33:53;;;;;;;16.50;3.70;;;23.50;49.70;;;;;;5486911;26;20125;-74
2024/04/12 12:36:21;;;;;;;10.02;3.78;;;23.50;50.40;;;;;;5484699;26;20385;-74
2024/04/12 12:38:48;;;;;;;9.93;3.90;;;23.50;51.00;;;;;;5486207;26;20002;-74
2024/04/12 12:41:15;;;;;;;7.03;3.65;;;23.40;51.10;;;;;;5477655;26;20009;-74
2024/04/12 12:43:44;;;;;;;8.82;3.70;;;23.40;51.50;;;;;;5484730;26;20017;-74
2024/04/12 12:46:15;;;;;;;9.40;3.63;;;23.50;51.80;;;;;;5486153;26;20514;-73
2024/04/12 12:48:41;;;;;;;10.20;3.60;;;23.60;50.60;;;;;;5484035;26;20462;-73
2024/04/12 12:51:12;;;;;;;14.13;3.55;;;23.60;50.40;;;;;;5483945;26;20002;-73
2024/04/12 12:53:38;;;;;;;10.77;3.30;;;23.40;49.90;;;;;;5486273;26;19998;-74
2024/04/12 12:56:07;;;;;;;11.75;3.30;;;23.40;48.90;;;;;;5485963;26;20359;-74
2024/04/12 12:58:38;;;;;;;11.45;3.45;;;23.50;49.80;;;;;;5486117;26;20012;-74
2024/04/12 13:01:07;;;;;;;6.47;3.17;;;23.50;49.30;;;;;;5485942;26;19998;-74
2024/04/12 13:03:36;;;;;;;10.15;3.20;;;23.50;49.40;;;;;;5486265;26;20061;-73
2024/04/12 13:06:08;;;;;;;7.05;2.88;;;23.50;49.70;;;;;;5484313;26;20017;-74
2024/04/12 13:08:35;;;;;;;16.50;3.05;;;23.50;49.10;;;;;;5486072;26;19998;-75
2024/04/12 13:11:04;;;;;;;11.27;3.90;;;23.50;48.10;;;;;;5485602;26;20002;-74
2024/04/12 13:13:33;;;;;;;10.40;4.28;;;23.60;47.00;;;;;;5486165;26;20525;-73
2024/04/12 13:15:59;;;;;;;8.90;3.47;;;23.50;48.80;;;;;;5486283;26;20450;-73
2024/04/12 13:18:29;;;;;;;7.85;2.97;;;23.40;49.80;;;;;;5484035;26;19994;-74
2024/04/12 13:20:57;;;;;;;18.15;3.55;;;23.40;48.90;;;;;;5484143;26;20066;-73
2024/04/12 13:23:26;;;;;;;7.63;2.90;;;23.40;50.10;;;;;;5483835;26;19994;-73
2024/04/12 13:25:55;;;;;;;11.35;3.65;;;23.40;49.20;;;;;;5485688;26;19998;-73
2024/04/12 13:28:21;;;;;;;9.57;3.35;;;23.50;49.20;;;;;;5485642;26;20002;-73
2024/04/12 13:30:47;;;;;;;8.68;3.50;;;23.50;49.60;;;;;;5483893;26;20002;-74
2024/04/12 13:33:14;;;;;;;10.77;3.15;;;23.40;50.10;;;;;;5485725;26;19999;-74
2024/04/12 13:35:41;;;;;;;14.77;3.15;;;23.40;50.20;;;;;;5485451;26;20005;-75
2024/04/12 13:38:15;;;;;;;8.77;3.05;;;23.50;49.90;;;;;;5485689;26;20002;-73
2024/04/12 13:40:42;;;;;;;10.23;3.85;;;23.50;49.50;;;;;;5477898;26;20454;-74
2024/04/12 13:43:15;;;;;;;8.73;2.85;;;23.60;49.70;;;;;;5483810;26;20098;-74
2024/04/12 13:51:20;;;;;;;19.43;3.10;;;23.40;50.70;;;;;;5485080;26;20009;-75
2024/04/12 13:53:50;;;;;;;16.08;3.78;;;23.40;50.00;;;;;;5485612;26;20462;-73
2024/04/12 13:58:57;;;;;;;8.88;2.78;;;23.50;50.00;;;;;;5484908;26;20002;-73
2024/04/12 14:01:28;;;;;;;6.95;2.50;;;23.40;49.10;;;;;;5487983;26;20049;-73
2024/04/12 14:04:02;;;;;;;10.07;3.03;;;23.50;49.50;;;;;;5489006;26;20462;-73
2024/04/12 14:06:35;;;;;;;6.13;2.67;;;23.40;49.20;;;;;;5486900;26;20002;-73
2024/04/12 14:09:08;;;;;;;6.40;3.40;;;23.40;48.90;;;;;;5478068;26;19994;-74
2024/04/12 14:11:34;;;;;;;7.72;3.08;;;23.30;48.30;;;;;;5486225;26;20010;-74
2024/04/12 14:14:03;;;;;;;13.20;3.13;;;23.20;48.40;;;;;;5487030;26;20427;-73
2024/04/12 14:16:32;;;;;;;9.40;2.55;;;23.20;48.70;;;;;;5488182;26;20009;-75
2024/04/12 14:19:01;;;;;;;22.83;3.42;;;23.20;47.90;;;;;;5488237;26;20013;-73
2024/04/12 14:21:27;;;;;;;4.60;2.60;;;23.20;48.20;;;;;;5488390;26;20338;-73
2024/04/12 14:23:55;;;;;;;9.85;3.08;;;23.20;48.20;;;;;;5486724;26;20343;-73